createdAt,value
2019-02-02T00:00:38.150Z,98549.12
2019-02-02T00:03:07.844Z,98543.03
2019-02-02T00:05:36.217Z,98536.88
2019-02-02T00:08:05.836Z,98541.93
2019-02-02T00:10:34.460Z,98546.72
2019-02-02T00:13:02.920Z,98548.39
2019-02-02T00:15:31.379Z,98563.95
2019-02-02T00:17:59.754Z,98571.63
2019-02-02T00:20:28.142Z,98568.37
2019-02-02T00:22:56.519Z,98576.86
2019-02-02T00:25:24.904Z,98572.14
2019-02-02T00:27:53.279Z,98570.70
2019-02-02T00:30:21.668Z,98566.58
2019-02-02T00:32:50.044Z,98569.30
2019-02-02T00:35:18.433Z,98578.45
2019-02-02T00:37:46.807Z,98578.39
2019-02-02T00:40:21.764Z,98573.37
2019-02-02T00:42:50.145Z,98567.80
2019-02-02T00:45:22.672Z,98570.00
2019-02-02T00:47:52.280Z,98573.30
2019-02-02T00:50:20.659Z,98575.60
2019-02-02T00:52:49.112Z,98572.25
2019-02-02T00:55:20.759Z,98559.11
2019-02-02T00:57:53.410Z,98556.31
2019-02-02T01:00:26.896Z,98546.02
2019-02-02T01:02:55.339Z,98548.53
2019-02-02T01:05:24.669Z,98551.63
2019-02-02T01:07:54.272Z,98556.16
2019-02-02T01:10:34.760Z,98552.17
2019-02-02T01:13:03.368Z,98554.44
2019-02-02T01:15:31.818Z,98556.39
2019-02-02T01:18:00.200Z,98557.89
2019-02-02T01:20:29.857Z,98565.67
2019-02-02T01:22:58.410Z,98571.92
2019-02-02T01:25:26.859Z,98575.42
2019-02-02T01:28:04.915Z,98580.94
2019-02-02T01:30:26.384Z,98583.30
2019-02-02T01:32:54.825Z,98581.91
2019-02-02T01:35:23.206Z,98595.80
2019-02-02T01:37:51.652Z,98589.45
2019-02-02T01:40:27.649Z,98585.20
2019-02-02T01:43:33.333Z,98583.74
2019-02-02T01:46:33.163Z,98572.03
2019-02-02T01:49:02.689Z,98576.56
2019-02-02T01:51:40.058Z,98572.53
2019-02-02T01:57:16.694Z,98562.66
2019-02-02T02:00:10.417Z,98559.89
2019-02-02T02:02:51.286Z,98544.15
2019-02-02T02:08:34.278Z,98541.73
2019-02-02T02:11:03.508Z,98544.92
2019-02-02T02:13:51.967Z,98553.41
2019-02-02T02:16:39.467Z,98544.69
2019-02-02T02:19:07.838Z,98547.05
2019-02-02T02:21:36.238Z,98540.38
2019-02-02T02:24:04.694Z,98533.64
2019-02-02T02:26:52.199Z,98531.28
2019-02-02T02:29:39.830Z,98527.62
2019-02-02T02:32:08.215Z,98527.81
2019-02-02T02:34:36.597Z,98527.58
2019-02-02T02:37:04.975Z,98526.69
2019-02-02T02:39:33.350Z,98523.56
2019-02-02T02:42:01.737Z,98519.08
2019-02-02T02:44:49.355Z,98523.91
2019-02-02T02:47:17.741Z,98525.21
2019-02-02T02:50:05.359Z,98526.92
2019-02-02T02:52:33.743Z,98526.52
2019-02-02T02:55:21.232Z,98521.86
2019-02-02T02:57:49.609Z,98517.38
2019-02-02T03:00:37.329Z,98517.47
2019-02-02T03:03:45.660Z,98527.58
2019-02-02T03:06:33.270Z,98530.34
2019-02-02T03:09:41.553Z,98534.52
2019-02-02T03:12:29.057Z,98530.99
2019-02-02T03:20:39.577Z,98517.90
2019-02-02T03:23:27.215Z,98514.78
2019-02-02T03:31:37.187Z,98526.09
2019-02-02T03:34:05.575Z,98537.95
2019-02-02T03:36:53.188Z,98544.52
2019-02-02T03:39:21.568Z,98531.85
2019-02-02T03:41:49.943Z,98518.15
2019-02-02T03:44:18.327Z,98533.76
2019-02-02T03:46:46.697Z,98541.72
2019-02-02T03:49:15.115Z,98543.12
2019-02-02T03:51:43.488Z,98537.19
2019-02-02T03:54:11.891Z,98537.14
2019-02-02T03:56:40.263Z,98539.96
2019-02-02T03:59:08.650Z,98543.39
2019-02-02T04:01:37.039Z,98543.52
2019-02-02T04:04:05.494Z,98546.88
2019-02-02T04:06:33.868Z,98541.61
2019-02-02T04:09:02.246Z,98550.05
2019-02-02T04:11:30.621Z,98551.58
2019-02-02T04:13:59.000Z,98552.63
2019-02-02T04:16:27.478Z,98549.98
2019-02-02T04:18:55.863Z,98554.22
2019-02-02T04:21:24.239Z,98550.48
2019-02-02T04:23:52.829Z,98550.44
2019-02-02T04:26:21.246Z,98551.32
2019-02-02T04:28:49.866Z,98555.69
2019-02-02T04:31:18.240Z,98560.70
2019-02-02T04:33:46.624Z,98565.26
2019-02-02T04:36:14.999Z,98578.74
2019-02-02T04:38:43.385Z,98573.88
2019-02-02T04:41:11.763Z,98572.84
2019-02-02T04:43:40.163Z,98582.50
2019-02-02T04:46:08.535Z,98573.70
2019-02-02T04:48:36.921Z,98571.02
2019-02-02T04:51:05.386Z,98570.17
2019-02-02T04:53:33.822Z,98570.36
2019-02-02T04:56:02.214Z,98574.72
2019-02-02T04:58:30.590Z,98578.85
2019-02-02T05:00:58.989Z,98579.42
2019-02-02T05:03:27.349Z,98587.89
2019-02-02T05:05:55.734Z,98588.70
2019-02-02T05:08:24.107Z,98584.86
2019-02-02T05:10:52.687Z,98593.73
2019-02-02T05:13:21.067Z,98597.56
2019-02-02T05:15:49.452Z,98600.77
2019-02-02T05:18:17.821Z,98599.63
2019-02-02T05:20:46.201Z,98591.48
2019-02-02T05:23:14.573Z,98594.50
2019-02-02T05:25:42.959Z,98595.51
2019-02-02T05:28:11.334Z,98594.19
2019-02-02T05:30:39.718Z,98595.31
2019-02-02T05:33:08.093Z,98592.73
2019-02-02T05:35:36.800Z,98597.44
2019-02-02T05:38:05.174Z,98599.75
2019-02-02T05:40:33.560Z,98594.19
2019-02-02T05:43:01.936Z,98593.56
2019-02-02T05:45:30.317Z,98592.59
2019-02-02T05:47:58.694Z,98600.59
2019-02-02T05:50:27.084Z,98595.66
2019-02-02T05:52:55.461Z,98603.87
2019-02-02T05:55:24.386Z,98605.87
2019-02-02T05:57:52.871Z,98606.44
2019-02-02T06:00:36.644Z,98606.31
2019-02-02T06:03:05.679Z,98610.00
2019-02-02T06:05:34.064Z,98606.97
2019-02-02T06:08:02.638Z,98609.83
2019-02-02T06:10:31.025Z,98614.66
2019-02-02T06:12:59.396Z,98622.14
2019-02-02T06:15:28.839Z,98621.65
2019-02-02T06:17:57.620Z,98620.72
2019-02-02T06:20:25.991Z,98632.70
2019-02-02T06:22:54.435Z,98637.73
2019-02-02T06:25:23.106Z,98637.20
2019-02-02T06:27:51.473Z,98639.45
2019-02-02T06:30:21.591Z,98636.58
2019-02-02T06:32:50.197Z,98641.95
2019-02-02T06:35:19.263Z,98631.59
2019-02-02T06:37:47.591Z,98633.80
2019-02-02T06:40:17.317Z,98634.89
2019-02-02T06:42:45.686Z,98641.69
2019-02-02T06:45:25.773Z,98645.08
2019-02-02T06:47:54.213Z,98650.99
2019-02-02T06:50:22.589Z,98650.63
2019-02-02T06:52:50.966Z,98652.82
2019-02-02T06:55:19.413Z,98652.34
2019-02-02T06:57:47.801Z,98658.85
2019-02-02T07:00:18.620Z,98670.05
2019-02-02T07:02:47.061Z,98684.98
2019-02-02T07:05:15.588Z,98686.36
2019-02-02T07:07:44.286Z,98673.13
2019-02-02T07:10:16.294Z,98673.08
2019-02-02T07:12:44.686Z,98680.95
2019-02-02T07:15:15.797Z,98689.27
2019-02-02T07:17:44.198Z,98688.03
2019-02-02T07:20:13.982Z,98684.71
2019-02-02T07:22:42.376Z,98692.03
2019-02-02T07:25:11.487Z,98709.28
2019-02-02T07:27:39.867Z,98713.41
2019-02-02T07:30:27.659Z,98715.08
2019-02-02T07:32:46.669Z,98707.35
2019-02-02T07:35:15.110Z,98719.69
2019-02-02T07:37:43.490Z,98728.22
2019-02-02T07:40:15.233Z,98728.31
2019-02-02T07:42:43.684Z,98737.64
2019-02-02T07:45:17.750Z,98739.66
2019-02-02T07:47:46.303Z,98740.70
2019-02-02T07:50:16.214Z,98744.72
2019-02-02T07:52:45.138Z,98758.80
2019-02-02T07:55:18.426Z,98758.39
2019-02-02T07:57:46.808Z,98750.09
2019-02-02T08:00:23.661Z,98742.82
2019-02-02T08:02:52.047Z,98745.11
2019-02-02T08:05:20.423Z,98741.61
2019-02-02T08:07:48.805Z,98736.39
2019-02-02T08:10:17.271Z,98736.30
2019-02-02T08:12:45.723Z,98724.50
2019-02-02T08:15:28.525Z,98734.41
2019-02-02T08:17:57.078Z,98738.72
2019-02-02T08:20:25.449Z,98739.03
2019-02-02T08:22:56.452Z,98743.07
2019-02-02T08:25:23.929Z,98749.39
2019-02-02T08:27:52.423Z,98753.61
2019-02-02T08:30:23.510Z,98745.73
2019-02-02T08:32:51.897Z,98744.20
2019-02-02T08:35:20.608Z,98744.34
2019-02-02T08:37:49.158Z,98754.77
2019-02-02T08:40:19.370Z,98766.36
2019-02-02T08:42:47.753Z,98762.69
2019-02-02T08:45:16.603Z,98765.65
2019-02-02T08:47:44.948Z,98773.88
2019-02-02T08:50:25.231Z,98795.80
2019-02-02T08:52:53.820Z,98813.56
2019-02-02T08:55:22.212Z,98814.44
2019-02-02T08:57:50.689Z,98819.81
2019-02-02T09:00:20.865Z,98817.07
2019-02-02T09:02:49.338Z,98815.59
2019-02-02T09:05:20.270Z,98819.89
2019-02-02T09:07:48.650Z,98825.89
2019-02-02T09:10:25.599Z,98826.80
2019-02-02T09:12:54.143Z,98828.31
2019-02-02T09:15:22.542Z,98834.45
2019-02-02T09:17:50.918Z,98834.11
2019-02-02T09:20:19.393Z,98837.79
2019-02-02T09:22:49.393Z,98846.70
2019-02-02T09:25:18.916Z,98845.86
2019-02-02T09:27:47.422Z,98834.61
2019-02-02T09:30:18.783Z,98841.37
2019-02-02T09:32:47.156Z,98852.77
2019-02-02T09:35:15.673Z,98843.14
2019-02-02T09:37:44.049Z,98844.84
2019-02-02T09:40:17.430Z,98849.63
2019-02-02T09:43:05.210Z,98825.67
2019-02-02T09:45:33.593Z,98850.16
2019-02-02T09:48:01.968Z,98859.32
2019-02-02T09:50:30.349Z,98846.45
2019-02-02T09:53:17.984Z,98865.33
2019-02-02T09:56:05.670Z,98864.17
2019-02-02T10:01:27.735Z,98870.28
2019-02-02T10:04:10.702Z,98865.35
2019-02-02T10:09:13.781Z,98882.08
2019-02-02T10:14:35.663Z,98887.73
2019-02-02T10:17:23.290Z,98885.77
2019-02-02T10:19:51.674Z,98883.78
2019-02-02T10:22:42.211Z,98893.02
2019-02-02T10:25:50.504Z,98888.31
2019-02-02T10:28:18.879Z,98889.72
2019-02-02T10:31:06.512Z,98896.02
2019-02-02T10:33:54.129Z,98895.98
2019-02-02T10:36:22.586Z,98886.66
2019-02-02T10:39:10.251Z,98868.03
2019-02-02T10:44:12.202Z,98876.00
2019-02-02T10:46:40.650Z,98877.42
2019-02-02T10:51:56.526Z,98884.52
2019-02-02T10:54:44.250Z,98890.84
2019-02-02T10:57:12.642Z,98889.44
2019-02-02T11:02:47.582Z,98893.41
2019-02-02T11:05:55.944Z,98886.27
2019-02-02T11:08:24.551Z,98894.19
2019-02-02T11:10:54.587Z,98903.34
2019-02-02T11:13:43.851Z,98905.52
2019-02-02T11:16:12.251Z,98911.19
2019-02-02T11:18:59.922Z,98905.41
2019-02-02T11:21:28.357Z,98911.19
2019-02-02T11:23:56.757Z,98912.80
2019-02-02T11:26:32.057Z,98912.02
2019-02-02T11:29:02.219Z,98904.86
2019-02-02T11:32:02.234Z,98911.73
2019-02-02T11:34:21.500Z,98909.50
2019-02-02T11:37:08.999Z,98913.03
2019-02-02T11:39:56.617Z,98917.05
2019-02-02T11:44:58.767Z,98911.34
2019-02-02T11:47:46.265Z,98914.54
2019-02-02T11:50:54.552Z,98906.17
2019-02-02T11:53:22.938Z,98908.94
2019-02-02T11:56:13.775Z,98906.23
2019-02-02T11:59:01.467Z,98901.86
2019-02-02T12:01:48.966Z,98913.81
2019-02-02T12:04:17.337Z,98913.99
2019-02-02T12:06:45.722Z,98920.91
2019-02-02T12:09:14.100Z,98918.48
2019-02-02T12:11:42.490Z,98915.02
2019-02-02T12:14:10.858Z,98919.45
2019-02-02T12:16:58.577Z,98911.98
2019-02-02T12:19:26.948Z,98925.48
2019-02-02T12:21:55.330Z,98923.05
2019-02-02T12:24:42.951Z,98924.77
2019-02-02T12:27:30.447Z,98922.76
2019-02-02T12:29:58.829Z,98925.52
2019-02-02T12:32:46.329Z,98927.46
2019-02-02T12:35:34.053Z,98933.30
2019-02-02T12:38:02.442Z,98936.60
2019-02-02T12:40:50.130Z,98944.75
2019-02-02T12:43:57.119Z,98948.97
2019-02-02T12:46:25.497Z,98954.39
2019-02-02T12:48:53.904Z,98955.36
2019-02-02T12:51:22.278Z,98950.05
2019-02-02T12:54:09.999Z,98964.06
2019-02-02T12:56:38.371Z,98961.14
2019-02-02T12:59:46.667Z,98966.91
2019-02-02T13:02:38.243Z,98967.34
2019-02-02T13:05:23.588Z,98975.44
2019-02-02T13:07:51.971Z,98976.09
2019-02-02T13:11:00.261Z,98978.51
2019-02-02T13:13:47.904Z,98984.12
2019-02-02T13:16:16.280Z,98981.90
2019-02-02T13:19:04.008Z,98983.56
2019-02-02T13:21:51.635Z,98981.97
2019-02-02T13:24:20.020Z,98984.95
2019-02-02T13:27:07.651Z,98979.27
2019-02-02T13:29:55.284Z,98978.97
2019-02-02T13:35:51.025Z,98985.67
2019-02-02T13:38:19.423Z,98990.02
2019-02-02T13:41:06.911Z,99001.99
2019-02-02T13:43:35.295Z,99003.69
2019-02-02T13:46:23.184Z,99013.52
2019-02-02T13:51:25.972Z,99023.03
2019-02-02T13:54:06.290Z,99021.61
2019-02-02T13:56:43.719Z,99019.20
2019-02-02T14:01:45.805Z,99021.89
2019-02-02T14:04:33.320Z,99027.79
2019-02-02T14:07:01.707Z,99025.54
2019-02-02T14:12:03.915Z,99037.64
2019-02-02T14:14:32.304Z,99045.63
2019-02-02T14:17:00.685Z,99058.31
2019-02-02T14:19:29.067Z,99062.95
2019-02-02T14:21:57.451Z,99057.91
2019-02-02T14:24:25.840Z,99060.70
2019-02-02T14:26:54.222Z,99063.53
2019-02-02T14:29:22.751Z,99068.89
2019-02-02T14:31:51.126Z,99072.39
2019-02-02T14:34:19.522Z,99076.67
2019-02-02T14:36:47.895Z,99075.00
2019-02-02T14:39:16.282Z,99087.77
2019-02-02T14:41:44.658Z,99087.41
2019-02-02T14:44:13.097Z,99090.58
2019-02-02T14:46:41.471Z,99098.70
2019-02-02T14:49:09.929Z,99105.90
2019-02-02T14:51:38.306Z,99113.83
2019-02-02T14:54:06.684Z,99114.27
2019-02-02T14:56:35.076Z,99114.73
2019-02-02T14:59:03.928Z,99123.26
2019-02-02T15:01:32.345Z,99129.68
2019-02-02T15:04:00.825Z,99124.84
2019-02-02T15:06:29.326Z,99127.65
2019-02-02T15:08:57.698Z,99128.56
2019-02-02T15:11:26.159Z,99127.80
2019-02-02T15:13:54.546Z,99131.11
2019-02-02T15:16:22.944Z,99133.01
2019-02-02T15:18:51.320Z,99129.78
2019-02-02T15:21:19.702Z,99136.28
2019-02-02T15:23:48.080Z,99143.80
2019-02-02T15:26:16.470Z,99149.72
2019-02-02T15:28:44.864Z,99154.16
2019-02-02T15:31:13.263Z,99154.84
2019-02-02T15:33:41.644Z,99162.06
2019-02-02T15:36:10.040Z,99160.33
2019-02-02T15:38:38.435Z,99159.44
2019-02-02T15:41:06.821Z,99162.63
2019-02-02T15:43:35.200Z,99161.98
2019-02-02T15:46:03.584Z,99166.25
2019-02-02T15:48:31.959Z,99175.81
2019-02-02T15:51:00.349Z,99181.45
2019-02-02T15:53:28.735Z,99185.61
2019-02-02T15:55:57.124Z,99183.54
2019-02-02T15:58:25.498Z,99184.09
2019-02-02T16:00:53.885Z,99200.63
2019-02-02T16:03:22.258Z,99200.24
2019-02-02T16:05:50.647Z,99203.83
2019-02-02T16:08:19.024Z,99215.30
2019-02-02T16:10:47.411Z,99221.89
2019-02-02T16:13:15.799Z,99219.91
2019-02-02T16:15:44.182Z,99226.55
2019-02-02T16:18:12.557Z,99221.45
2019-02-02T16:20:42.789Z,99230.55
2019-02-02T16:23:11.226Z,99230.18
2019-02-02T16:25:39.612Z,99236.53
2019-02-02T16:28:08.093Z,99241.38
2019-02-02T16:30:36.473Z,99239.44
2019-02-02T16:33:05.248Z,99238.16
2019-02-02T16:35:33.760Z,99241.19
2019-02-02T16:38:02.149Z,99239.05
2019-02-02T16:40:31.371Z,99242.22
2019-02-02T16:42:59.750Z,99253.37
2019-02-02T16:45:30.374Z,99259.30
2019-02-02T16:47:59.018Z,99266.55
2019-02-02T16:50:27.533Z,99280.50
2019-02-02T16:52:55.924Z,99289.08
2019-02-02T16:55:24.375Z,99286.17
2019-02-02T16:57:52.934Z,99280.44
2019-02-02T17:00:30.432Z,99286.77
2019-02-02T17:02:58.907Z,99287.32
2019-02-02T17:05:27.514Z,99296.22
2019-02-02T17:07:56.087Z,99307.76
2019-02-02T17:10:29.334Z,99310.62
2019-02-02T17:12:57.786Z,99312.70
2019-02-02T17:15:26.333Z,99318.04
2019-02-02T17:17:54.704Z,99331.27
2019-02-02T17:20:25.892Z,99334.42
2019-02-02T17:22:54.282Z,99341.12
2019-02-02T17:25:23.154Z,99350.19
2019-02-02T17:27:51.593Z,99361.66
2019-02-02T17:30:21.804Z,99366.72
2019-02-02T17:32:50.823Z,99376.75
2019-02-02T17:35:19.384Z,99371.90
2019-02-02T17:37:47.758Z,99377.25
2019-02-02T17:40:18.567Z,99382.34
2019-02-02T17:42:46.950Z,99384.37
2019-02-02T17:45:20.373Z,99385.44
2019-02-02T17:47:49.299Z,99385.44
2019-02-02T17:50:19.315Z,99383.95
2019-02-02T17:52:47.947Z,99392.16
2019-02-02T17:55:16.397Z,99396.19
2019-02-02T17:57:44.784Z,99398.00
2019-02-02T18:00:16.049Z,99402.88
2019-02-02T18:02:44.452Z,99411.14
2019-02-02T18:05:13.004Z,99408.44
2019-02-02T18:07:41.379Z,99413.31
2019-02-02T18:10:12.104Z,99400.74
2019-02-02T18:12:40.700Z,99408.14
2019-02-02T18:15:16.496Z,99411.67
2019-02-02T18:17:44.877Z,99425.52
2019-02-02T18:20:17.264Z,99426.89
2019-02-02T18:22:45.711Z,99431.66
2019-02-02T18:25:15.739Z,99435.26
2019-02-02T18:27:44.381Z,99451.08
2019-02-02T18:30:17.949Z,99445.62
2019-02-02T18:32:46.415Z,99444.00
2019-02-02T18:35:16.034Z,99449.27
2019-02-02T18:37:44.581Z,99462.02
2019-02-02T18:40:21.074Z,99466.61
2019-02-02T18:42:49.600Z,99461.52
2019-02-02T18:45:20.428Z,99462.42
2019-02-02T18:47:48.875Z,99469.89
2019-02-02T18:50:18.081Z,99474.30
2019-02-02T18:52:48.106Z,99474.39
2019-02-02T18:55:28.397Z,99478.42
2019-02-02T18:57:56.783Z,99477.02
2019-02-02T19:00:25.270Z,99483.31
2019-02-02T19:02:53.735Z,99468.95
2019-02-02T19:05:22.246Z,99476.25
2019-02-02T19:07:50.700Z,99474.98
2019-02-02T19:10:24.824Z,99477.48
2019-02-02T19:12:53.205Z,99478.70
2019-02-02T19:15:21.591Z,99489.19
2019-02-02T19:17:49.982Z,99490.87
2019-02-02T19:20:20.494Z,99499.98
2019-02-02T19:22:48.943Z,99503.53
2019-02-02T19:25:17.504Z,99506.52
2019-02-02T19:27:45.884Z,99508.89
2019-02-02T19:30:33.546Z,99513.53
2019-02-02T19:33:01.918Z,99518.90
2019-02-02T19:35:30.403Z,99520.27
2019-02-02T19:37:58.771Z,99518.36
2019-02-02T19:40:27.158Z,99523.63
2019-02-02T19:42:55.590Z,99525.03
2019-02-02T19:45:28.140Z,99530.73
2019-02-02T19:47:56.528Z,99542.41
2019-02-02T19:50:26.787Z,99553.23
2019-02-02T19:52:55.408Z,99554.38
2019-02-02T19:55:23.852Z,99552.14
2019-02-02T19:57:52.225Z,99549.53
2019-02-02T20:00:31.647Z,99549.93
2019-02-02T20:03:00.285Z,99550.54
2019-02-02T20:05:29.333Z,99551.60
2019-02-02T20:07:57.731Z,99557.89
2019-02-02T20:10:26.111Z,99559.67
2019-02-02T20:12:54.555Z,99558.98
2019-02-02T20:15:24.962Z,99565.35
2019-02-02T20:17:53.408Z,99572.56
2019-02-02T20:21:01.696Z,99580.54
2019-02-02T20:23:49.412Z,99573.63
2019-02-02T20:31:26.150Z,99593.37
2019-02-02T20:34:13.845Z,99606.02
2019-02-02T20:37:01.485Z,99617.98
2019-02-02T20:42:36.530Z,99635.16
2019-02-02T20:45:44.893Z,99636.25
2019-02-02T20:48:32.535Z,99644.39
2019-02-02T20:51:02.641Z,99641.83
2019-02-02T20:53:31.068Z,99649.45
2019-02-02T20:56:18.709Z,99638.66
2019-02-02T20:58:47.087Z,99644.91
2019-02-02T21:01:17.201Z,99655.91
2019-02-02T21:04:04.702Z,99657.64
2019-02-02T21:06:52.364Z,99656.18
2019-02-02T21:09:20.747Z,99653.98
2019-02-02T21:11:56.540Z,99655.75
2019-02-02T21:14:38.630Z,99648.34
2019-02-02T21:17:08.746Z,99649.64
2019-02-02T21:19:37.214Z,99649.05
2019-02-02T21:22:05.773Z,99651.16
2019-02-02T21:24:34.170Z,99661.60
2019-02-02T21:27:02.639Z,99663.68
2019-02-02T21:29:31.024Z,99676.60
2019-02-02T21:31:59.690Z,99671.00
2019-02-02T21:34:28.063Z,99681.70
2019-02-02T21:36:56.511Z,99684.83
2019-02-02T21:39:25.015Z,99692.50
2019-02-02T21:41:53.403Z,99698.23
2019-02-02T21:44:21.775Z,99702.84
2019-02-02T21:46:50.162Z,99712.39
2019-02-02T21:49:18.539Z,99721.92
2019-02-02T21:51:47.165Z,99728.59
2019-02-02T21:54:15.617Z,99726.16
2019-02-02T21:56:44.007Z,99740.55
2019-02-02T21:59:12.385Z,99750.00
2019-02-02T22:01:40.763Z,99758.70
2019-02-02T22:04:09.156Z,99761.73
2019-02-02T22:06:37.574Z,99758.92
2019-02-02T22:09:07.700Z,99747.06
2019-02-02T22:11:36.155Z,99749.17
2019-02-02T22:14:05.055Z,99759.16
2019-02-02T22:16:33.541Z,99769.80
2019-02-02T22:19:02.184Z,99781.64
2019-02-02T22:21:30.565Z,99789.86
2019-02-02T22:23:58.955Z,99794.38
2019-02-02T22:26:27.444Z,99798.33
2019-02-02T22:28:57.849Z,99799.84
2019-02-02T22:31:25.943Z,99801.70
2019-02-02T22:33:54.395Z,99800.05
2019-02-02T22:36:27.633Z,99814.23
2019-02-02T22:38:52.932Z,99819.84
2019-02-02T22:41:21.566Z,99836.75
2019-02-02T22:43:49.950Z,99849.84
2019-02-02T22:46:18.402Z,99849.36
2019-02-02T22:48:46.795Z,99850.22
2019-02-02T22:51:15.168Z,99846.08
2019-02-02T22:53:43.558Z,99843.36
2019-02-02T22:56:12.387Z,99853.25
2019-02-02T22:58:40.771Z,99856.42
2019-02-02T23:01:15.505Z,99870.28
2019-02-02T23:04:02.419Z,99875.53
2019-02-02T23:06:39.306Z,99877.56
2019-02-02T23:09:26.454Z,99880.88
2019-02-02T23:12:00.623Z,99888.67
2019-02-02T23:14:32.058Z,99892.47
2019-02-02T23:17:00.437Z,99897.98
2019-02-02T23:19:29.024Z,99906.64
2019-02-02T23:21:57.414Z,99917.17
2019-02-02T23:24:25.789Z,99926.85
2019-02-02T23:26:54.173Z,99919.63
2019-02-02T23:29:22.691Z,99918.14
2019-02-02T23:31:51.741Z,99929.74
2019-02-02T23:34:20.196Z,99938.13
2019-02-02T23:36:52.615Z,99949.27
2019-02-02T23:39:18.693Z,99953.23
2019-02-02T23:41:47.115Z,99955.55
2019-02-02T23:44:15.500Z,99960.09
2019-02-02T23:46:43.880Z,99965.88
2019-02-02T23:49:12.269Z,99973.61
2019-02-02T23:51:40.647Z,99974.18
2019-02-02T23:54:09.413Z,99975.70
2019-02-02T23:56:37.796Z,99972.43
2019-02-02T23:59:06.200Z,99974.64
